sensor_id;sensor_type;location;lat;lon;timestamp;P1;durP1;ratioP1;P2;durP2;ratioP2
45762;SDS011;37512;52.408;13.356;2022-09-19T00:03:45;1.38;;;1.25;;
45762;SDS011;37512;52.408;13.356;2022-09-19T00:07:51;5.10;;;2.03;;
45762;SDS011;37512;52.408;13.356;2022-09-19T00:11:53;6.68;;;1.98;;
45762;SDS011;37512;52.408;13.356;2022-09-19T00:15:57;5.18;;;2.00;;
45762;SDS011;37512;52.408;13.356;2022-09-19T00:19:58;5.10;;;1.88;;
45762;SDS011;37512;52.408;13.356;2022-09-19T00:24:00;2.05;;;1.00;;
45762;SDS011;37512;52.408;13.356;2022-09-19T00:28:20;4.55;;;1.63;;
45762;SDS011;37512;52.408;13.356;2022-09-19T00:32:23;7.55;;;1.73;;
45762;SDS011;37512;52.408;13.356;2022-09-19T00:36:25;2.47;;;1.60;;
45762;SDS011;37512;52.408;13.356;2022-09-19T00:40:26;6.22;;;2.03;;
45762;SDS011;37512;52.408;13.356;2022-09-19T00:48:29;5.07;;;1.88;;
45762;SDS011;37512;52.408;13.356;2022-09-19T00:52:33;8.93;;;2.20;;
45762;SDS011;37512;52.408;13.356;2022-09-19T00:56:42;5.55;;;2.08;;
45762;SDS011;37512;52.408;13.356;2022-09-19T01:00:47;2.67;;;1.50;;
45762;SDS011;37512;52.408;13.356;2022-09-19T01:04:50;9.25;;;3.08;;
45762;SDS011;37512;52.408;13.356;2022-09-19T01:09:08;5.72;;;3.15;;
45762;SDS011;37512;52.408;13.356;2022-09-19T01:13:24;4.10;;;1.52;;
45762;SDS011;37512;52.408;13.356;2022-09-19T01:17:44;7.53;;;2.67;;
45762;SDS011;37512;52.408;13.356;2022-09-19T01:22:00;6.68;;;2.92;;
45762;SDS011;37512;52.408;13.356;2022-09-19T01:30:32;5.13;;;2.25;;
45762;SDS011;37512;52.408;13.356;2022-09-19T01:34:39;8.57;;;2.65;;
45762;SDS011;37512;52.408;13.356;2022-09-19T01:38:45;6.70;;;3.17;;
45762;SDS011;37512;52.408;13.356;2022-09-19T01:42:51;11.07;;;3.85;;
45762;SDS011;37512;52.408;13.356;2022-09-19T01:55:50;4.95;;;3.28;;
45762;SDS011;37512;52.408;13.356;2022-09-19T02:08:25;8.07;;;3.63;;
45762;SDS011;37512;52.408;13.356;2022-09-19T02:12:47;5.75;;;3.30;;
45762;SDS011;37512;52.408;13.356;2022-09-19T02:17:02;5.25;;;3.10;;
45762;SDS011;37512;52.408;13.356;2022-09-19T02:21:11;5.50;;;3.10;;
45762;SDS011;37512;52.408;13.356;2022-09-19T02:25:21;6.43;;;3.17;;
45762;SDS011;37512;52.408;13.356;2022-09-19T02:29:27;9.80;;;3.72;;
45762;SDS011;37512;52.408;13.356;2022-09-19T02:33:31;4.28;;;3.40;;
45762;SDS011;37512;52.408;13.356;2022-09-19T02:37:37;6.40;;;3.20;;
45762;SDS011;37512;52.408;13.356;2022-09-19T02:46:03;5.97;;;3.00;;
45762;SDS011;37512;52.408;13.356;2022-09-19T02:50:16;10.10;;;3.33;;
45762;SDS011;37512;52.408;13.356;2022-09-19T02:54:31;7.15;;;3.75;;
45762;SDS011;37512;52.408;13.356;2022-09-19T02:58:42;9.95;;;3.90;;
45762;SDS011;37512;52.408;13.356;2022-09-19T03:02:57;8.13;;;3.78;;
45762;SDS011;37512;52.408;13.356;2022-09-19T03:07:24;5.53;;;3.83;;
45762;SDS011;37512;52.408;13.356;2022-09-19T03:11:29;4.80;;;3.28;;
45762;SDS011;37512;52.408;13.356;2022-09-19T03:15:40;6.97;;;3.20;;
45762;SDS011;37512;52.408;13.356;2022-09-19T03:19:48;7.97;;;4.07;;
45762;SDS011;37512;52.408;13.356;2022-09-19T03:23:51;6.85;;;3.42;;
45762;SDS011;37512;52.408;13.356;2022-09-19T03:28:00;7.25;;;3.30;;
45762;SDS011;37512;52.408;13.356;2022-09-19T03:32:02;5.00;;;3.30;;
45762;SDS011;37512;52.408;13.356;2022-09-19T03:36:04;5.30;;;3.60;;
45762;SDS011;37512;52.408;13.356;2022-09-19T03:40:09;6.65;;;3.58;;
45762;SDS011;37512;52.408;13.356;2022-09-19T03:44:12;4.95;;;3.80;;
45762;SDS011;37512;52.408;13.356;2022-09-19T03:48:13;4.97;;;3.97;;
45762;SDS011;37512;52.408;13.356;2022-09-19T03:52:18;8.35;;;4.57;;
45762;SDS011;37512;52.408;13.356;2022-09-19T03:56:20;6.30;;;4.50;;
45762;SDS011;37512;52.408;13.356;2022-09-19T04:00:22;8.80;;;4.97;;
45762;SDS011;37512;52.408;13.356;2022-09-19T04:04:23;9.10;;;4.70;;
45762;SDS011;37512;52.408;13.356;2022-09-19T04:08:25;10.60;;;4.63;;
45762;SDS011;37512;52.408;13.356;2022-09-19T04:12:26;7.38;;;5.00;;
45762;SDS011;37512;52.408;13.356;2022-09-19T04:16:28;6.82;;;4.90;;
45762;SDS011;37512;52.408;13.356;2022-09-19T04:20:30;6.82;;;4.90;;
45762;SDS011;37512;52.408;13.356;2022-09-19T04:24:32;7.40;;;4.80;;
45762;SDS011;37512;52.408;13.356;2022-09-19T04:28:34;10.13;;;4.70;;
45762;SDS011;37512;52.408;13.356;2022-09-19T04:32:38;6.72;;;4.82;;
45762;SDS011;37512;52.408;13.356;2022-09-19T04:36:41;10.55;;;5.60;;
45762;SDS011;37512;52.408;13.356;2022-09-19T04:40:44;8.13;;;4.88;;
45762;SDS011;37512;52.408;13.356;2022-09-19T04:44:47;10.95;;;4.50;;
45762;SDS011;37512;52.408;13.356;2022-09-19T04:48:55;5.65;;;4.55;;
45762;SDS011;37512;52.408;13.356;2022-09-19T04:52:57;7.65;;;4.75;;
45762;SDS011;37512;52.408;13.356;2022-09-19T04:56:58;10.45;;;5.00;;
45762;SDS011;37512;52.408;13.356;2022-09-19T05:01:00;7.05;;;4.93;;
45762;SDS011;37512;52.408;13.356;2022-09-19T05:05:01;7.57;;;4.47;;
45762;SDS011;37512;52.408;13.356;2022-09-19T05:09:04;7.40;;;4.88;;
45762;SDS011;37512;52.408;13.356;2022-09-19T05:13:05;10.43;;;4.82;;
45762;SDS011;37512;52.408;13.356;2022-09-19T05:17:07;6.40;;;4.68;;
45762;SDS011;37512;52.408;13.356;2022-09-19T05:21:10;6.65;;;5.13;;
45762;SDS011;37512;52.408;13.356;2022-09-19T05:25:13;9.18;;;5.03;;
45762;SDS011;37512;52.408;13.356;2022-09-19T05:29:16;7.75;;;4.65;;
45762;SDS011;37512;52.408;13.356;2022-09-19T05:33:18;6.45;;;4.50;;
45762;SDS011;37512;52.408;13.356;2022-09-19T05:37:25;7.45;;;4.40;;
45762;SDS011;37512;52.408;13.356;2022-09-19T05:41:26;10.85;;;4.75;;
45762;SDS011;37512;52.408;13.356;2022-09-19T05:45:28;5.93;;;4.68;;
45762;SDS011;37512;52.408;13.356;2022-09-19T05:49:30;6.15;;;4.40;;
45762;SDS011;37512;52.408;13.356;2022-09-19T05:53:32;9.18;;;4.22;;
45762;SDS011;37512;52.408;13.356;2022-09-19T05:57:53;4.20;;;2.50;;
45762;SDS011;37512;52.408;13.356;2022-09-19T06:01:58;7.63;;;3.13;;
45762;SDS011;37512;52.408;13.356;2022-09-19T06:06:05;9.02;;;3.40;;
45762;SDS011;37512;52.408;13.356;2022-09-19T06:10:13;5.40;;;2.63;;
45762;SDS011;37512;52.408;13.356;2022-09-19T06:14:15;10.30;;;2.92;;
45762;SDS011;37512;52.408;13.356;2022-09-19T06:18:16;5.32;;;3.55;;
45762;SDS011;37512;52.408;13.356;2022-09-19T06:22:18;8.13;;;2.95;;
45762;SDS011;37512;52.408;13.356;2022-09-19T06:26:19;6.25;;;3.17;;
45762;SDS011;37512;52.408;13.356;2022-09-19T06:30:22;4.85;;;2.22;;
45762;SDS011;37512;52.408;13.356;2022-09-19T06:34:24;3.85;;;2.40;;
45762;SDS011;37512;52.408;13.356;2022-09-19T06:38:45;8.88;;;2.60;;
45762;SDS011;37512;52.408;13.356;2022-09-19T06:42:47;5.90;;;3.70;;
45762;SDS011;37512;52.408;13.356;2022-09-19T06:46:48;4.78;;;2.55;;
45762;SDS011;37512;52.408;13.356;2022-09-19T06:50:50;7.22;;;3.40;;
45762;SDS011;37512;52.408;13.356;2022-09-19T06:54:52;5.18;;;3.10;;
45762;SDS011;37512;52.408;13.356;2022-09-19T06:58:53;4.65;;;1.90;;
45762;SDS011;37512;52.408;13.356;2022-09-19T07:02:58;5.88;;;2.30;;
45762;SDS011;37512;52.408;13.356;2022-09-19T07:07:01;4.13;;;2.25;;
45762;SDS011;37512;52.408;13.356;2022-09-19T07:11:02;5.70;;;2.65;;
45762;SDS011;37512;52.408;13.356;2022-09-19T07:15:06;4.47;;;2.42;;
45762;SDS011;37512;52.408;13.356;2022-09-19T07:19:07;3.50;;;2.10;;
45762;SDS011;37512;52.408;13.356;2022-09-19T07:23:12;3.28;;;2.03;;
45762;SDS011;37512;52.408;13.356;2022-09-19T07:31:20;4.10;;;2.00;;
45762;SDS011;37512;52.408;13.356;2022-09-19T07:35:21;2.35;;;1.83;;
45762;SDS011;37512;52.408;13.356;2022-09-19T07:39:23;3.97;;;1.83;;
45762;SDS011;37512;52.408;13.356;2022-09-19T07:43:24;2.75;;;1.50;;
45762;SDS011;37512;52.408;13.356;2022-09-19T07:47:26;2.83;;;1.80;;
45762;SDS011;37512;52.408;13.356;2022-09-19T07:51:27;5.78;;;1.73;;
45762;SDS011;37512;52.408;13.356;2022-09-19T07:55:31;6.60;;;1.60;;
45762;SDS011;37512;52.408;13.356;2022-09-19T07:59:33;2.15;;;1.63;;
45762;SDS011;37512;52.408;13.356;2022-09-19T08:03:35;5.70;;;1.85;;
45762;SDS011;37512;52.408;13.356;2022-09-19T08:07:36;2.25;;;1.80;;
45762;SDS011;37512;52.408;13.356;2022-09-19T08:11:38;2.08;;;1.10;;
45762;SDS011;37512;52.408;13.356;2022-09-19T08:15:39;2.50;;;1.83;;
45762;SDS011;37512;52.408;13.356;2022-09-19T08:19:41;3.25;;;1.48;;
45762;SDS011;37512;52.408;13.356;2022-09-19T08:23:44;1.73;;;1.50;;
45762;SDS011;37512;52.408;13.356;2022-09-19T08:27:45;5.40;;;1.90;;
45762;SDS011;37512;52.408;13.356;2022-09-19T08:31:47;4.40;;;1.55;;
45762;SDS011;37512;52.408;13.356;2022-09-19T08:35:48;4.85;;;2.10;;
45762;SDS011;37512;52.408;13.356;2022-09-19T08:39:49;2.13;;;1.30;;
45762;SDS011;37512;52.408;13.356;2022-09-19T08:48:23;2.38;;;1.38;;
45762;SDS011;37512;52.408;13.356;2022-09-19T08:52:43;1.83;;;1.35;;
45762;SDS011;37512;52.408;13.356;2022-09-19T08:56:47;1.60;;;0.98;;
45762;SDS011;37512;52.408;13.356;2022-09-19T09:00:49;2.60;;;1.40;;
45762;SDS011;37512;52.408;13.356;2022-09-19T09:04:53;3.70;;;1.13;;
45762;SDS011;37512;52.408;13.356;2022-09-19T09:13:43;2.50;;;1.20;;
45762;SDS011;37512;52.408;13.356;2022-09-19T09:22:38;4.43;;;1.02;;
45762;SDS011;37512;52.408;13.356;2022-09-19T09:26:49;6.13;;;1.27;;
45762;SDS011;37512;52.408;13.356;2022-09-19T09:31:06;2.50;;;1.00;;
45762;SDS011;37512;52.408;13.356;2022-09-19T09:39:34;2.88;;;1.42;;
45762;SDS011;37512;52.408;13.356;2022-09-19T09:43:57;2.03;;;1.33;;
45762;SDS011;37512;52.408;13.356;2022-09-19T09:48:07;1.30;;;0.82;;
45762;SDS011;37512;52.408;13.356;2022-09-19T09:56:45;2.25;;;1.20;;
45762;SDS011;37512;52.408;13.356;2022-09-19T10:00:58;4.93;;;1.90;;
45762;SDS011;37512;52.408;13.356;2022-09-19T10:05:44;1.15;;;0.77;;
45762;SDS011;37512;52.408;13.356;2022-09-19T10:09:54;2.63;;;0.90;;
45762;SDS011;37512;52.408;13.356;2022-09-19T10:14:17;3.80;;;0.90;;
45762;SDS011;37512;52.408;13.356;2022-09-19T10:18:25;2.35;;;0.80;;
45762;SDS011;37512;52.408;13.356;2022-09-19T10:22:29;2.92;;;0.88;;
45762;SDS011;37512;52.408;13.356;2022-09-19T10:26:30;4.07;;;0.90;;
45762;SDS011;37512;52.408;13.356;2022-09-19T10:30:34;1.45;;;0.60;;
45762;SDS011;37512;52.408;13.356;2022-09-19T10:34:38;1.52;;;0.55;;
45762;SDS011;37512;52.408;13.356;2022-09-19T10:38:52;2.20;;;0.98;;
45762;SDS011;37512;52.408;13.356;2022-09-19T10:42:56;4.63;;;1.67;;
45762;SDS011;37512;52.408;13.356;2022-09-19T10:47:00;4.05;;;1.83;;
45762;SDS011;37512;52.408;13.356;2022-09-19T10:51:07;1.25;;;0.80;;
45762;SDS011;37512;52.408;13.356;2022-09-19T10:55:12;1.60;;;0.77;;
45762;SDS011;37512;52.408;13.356;2022-09-19T10:59:27;2.17;;;0.70;;
45762;SDS011;37512;52.408;13.356;2022-09-19T11:03:39;2.05;;;0.80;;
45762;SDS011;37512;52.408;13.356;2022-09-19T11:07:51;2.53;;;0.75;;
45762;SDS011;37512;52.408;13.356;2022-09-19T11:12:13;1.58;;;0.65;;
45762;SDS011;37512;52.408;13.356;2022-09-19T11:16:23;1.45;;;0.70;;
45762;SDS011;37512;52.408;13.356;2022-09-19T11:20:38;0.90;;;0.70;;
45762;SDS011;37512;52.408;13.356;2022-09-19T11:24:53;1.52;;;0.70;;
45762;SDS011;37512;52.408;13.356;2022-09-19T11:29:22;1.00;;;0.60;;
45762;SDS011;37512;52.408;13.356;2022-09-19T11:33:35;2.80;;;0.80;;
45762;SDS011;37512;52.408;13.356;2022-09-19T11:43:13;1.38;;;0.80;;
45762;SDS011;37512;52.408;13.356;2022-09-19T11:51:36;2.67;;;0.60;;
45762;SDS011;37512;52.408;13.356;2022-09-19T11:56:18;1.38;;;0.70;;
45762;SDS011;37512;52.408;13.356;2022-09-19T12:09:40;3.92;;;0.70;;
45762;SDS011;37512;52.408;13.356;2022-09-19T12:13:54;1.30;;;0.85;;
45762;SDS011;37512;52.408;13.356;2022-09-19T12:18:11;1.73;;;0.60;;
45762;SDS011;37512;52.408;13.356;2022-09-19T12:22:27;1.00;;;0.57;;
45762;SDS011;37512;52.408;13.356;2022-09-19T12:31:03;1.30;;;0.75;;
45762;SDS011;37512;52.408;13.356;2022-09-19T12:35:54;1.73;;;1.23;;
45762;SDS011;37512;52.408;13.356;2022-09-19T12:39:54;1.45;;;0.70;;
45762;SDS011;37512;52.408;13.356;2022-09-19T12:48:15;2.83;;;1.55;;
45762;SDS011;37512;52.408;13.356;2022-09-19T12:52:26;1.02;;;0.70;;
45762;SDS011;37512;52.408;13.356;2022-09-19T13:00:42;2.25;;;0.70;;
45762;SDS011;37512;52.408;13.356;2022-09-19T13:04:50;2.47;;;0.77;;
45762;SDS011;37512;52.408;13.356;2022-09-19T13:09:05;1.63;;;0.70;;
45762;SDS011;37512;52.408;13.356;2022-09-19T13:13:32;1.50;;;0.70;;
45762;SDS011;37512;52.408;13.356;2022-09-19T13:17:38;0.65;;;0.52;;
45762;SDS011;37512;52.408;13.356;2022-09-19T13:22:04;1.70;;;0.90;;
45762;SDS011;37512;52.408;13.356;2022-09-19T13:26:23;3.47;;;1.50;;
45762;SDS011;37512;52.408;13.356;2022-09-19T13:30:57;2.28;;;1.15;;
45762;SDS011;37512;52.408;13.356;2022-09-19T13:35:14;1.50;;;1.10;;
45762;SDS011;37512;52.408;13.356;2022-09-19T13:43:58;0.70;;;0.52;;
45762;SDS011;37512;52.408;13.356;2022-09-19T13:52:30;1.45;;;1.10;;
45762;SDS011;37512;52.408;13.356;2022-09-19T13:56:43;2.03;;;1.17;;
45762;SDS011;37512;52.408;13.356;2022-09-19T14:01:03;2.08;;;0.93;;
45762;SDS011;37512;52.408;13.356;2022-09-19T14:05:25;2.00;;;1.15;;
45762;SDS011;37512;52.408;13.356;2022-09-19T14:09:36;3.35;;;1.23;;
45762;SDS011;37512;52.408;13.356;2022-09-19T14:14:50;3.47;;;1.10;;
45762;SDS011;37512;52.408;13.356;2022-09-19T14:22:41;6.63;;;1.60;;
45762;SDS011;37512;52.408;13.356;2022-09-19T14:31:09;1.83;;;1.17;;
45762;SDS011;37512;52.408;13.356;2022-09-19T14:52:59;1.63;;;1.08;;
45762;SDS011;37512;52.408;13.356;2022-09-19T14:57:05;1.90;;;0.80;;
45762;SDS011;37512;52.408;13.356;2022-09-19T15:01:15;1.77;;;1.00;;
45762;SDS011;37512;52.408;13.356;2022-09-19T15:05:25;3.85;;;1.08;;
45762;SDS011;37512;52.408;13.356;2022-09-19T15:09:31;2.50;;;1.10;;
45762;SDS011;37512;52.408;13.356;2022-09-19T15:13:36;1.88;;;0.93;;
45762;SDS011;37512;52.408;13.356;2022-09-19T15:17:37;6.28;;;1.00;;
45762;SDS011;37512;52.408;13.356;2022-09-19T15:21:39;2.08;;;1.00;;
45762;SDS011;37512;52.408;13.356;2022-09-19T15:25:41;2.85;;;1.42;;
45762;SDS011;37512;52.408;13.356;2022-09-19T15:29:43;1.02;;;0.70;;
45762;SDS011;37512;52.408;13.356;2022-09-19T15:33:56;1.90;;;1.05;;
45762;SDS011;37512;52.408;13.356;2022-09-19T15:42:38;2.20;;;1.27;;
45762;SDS011;37512;52.408;13.356;2022-09-19T15:46:44;1.45;;;0.93;;
45762;SDS011;37512;52.408;13.356;2022-09-19T15:50:48;1.85;;;0.95;;
45762;SDS011;37512;52.408;13.356;2022-09-19T15:54:53;1.50;;;0.90;;
45762;SDS011;37512;52.408;13.356;2022-09-19T15:58:55;1.17;;;0.90;;
45762;SDS011;37512;52.408;13.356;2022-09-19T16:03:01;2.92;;;1.27;;
45762;SDS011;37512;52.408;13.356;2022-09-19T16:07:11;1.65;;;0.98;;
45762;SDS011;37512;52.408;13.356;2022-09-19T16:11:44;2.88;;;1.10;;
45762;SDS011;37512;52.408;13.356;2022-09-19T16:15:48;2.25;;;1.33;;
45762;SDS011;37512;52.408;13.356;2022-09-19T16:19:49;2.40;;;1.20;;
45762;SDS011;37512;52.408;13.356;2022-09-19T16:23:51;1.98;;;1.00;;
45762;SDS011;37512;52.408;13.356;2022-09-19T16:27:53;1.73;;;1.25;;
45762;SDS011;37512;52.408;13.356;2022-09-19T16:31:54;2.13;;;1.25;;
45762;SDS011;37512;52.408;13.356;2022-09-19T16:35:57;4.35;;;1.27;;
45762;SDS011;37512;52.408;13.356;2022-09-19T16:40:01;3.85;;;1.60;;
45762;SDS011;37512;52.408;13.356;2022-09-19T16:44:46;4.53;;;1.90;;
45762;SDS011;37512;52.408;13.356;2022-09-19T16:48:52;2.67;;;1.48;;
45762;SDS011;37512;52.408;13.356;2022-09-19T16:52:53;4.32;;;1.42;;
45762;SDS011;37512;52.408;13.356;2022-09-19T16:56:55;2.95;;;1.10;;
45762;SDS011;37512;52.408;13.356;2022-09-19T17:00:56;2.92;;;1.30;;
45762;SDS011;37512;52.408;13.356;2022-09-19T17:04:59;2.47;;;1.25;;
45762;SDS011;37512;52.408;13.356;2022-09-19T17:09:02;1.58;;;0.90;;
45762;SDS011;37512;52.408;13.356;2022-09-19T17:13:04;1.58;;;1.05;;
45762;SDS011;37512;52.408;13.356;2022-09-19T17:17:07;2.85;;;1.40;;
45762;SDS011;37512;52.408;13.356;2022-09-19T17:21:11;2.47;;;1.50;;
45762;SDS011;37512;52.408;13.356;2022-09-19T17:25:17;3.97;;;1.35;;
45762;SDS011;37512;52.408;13.356;2022-09-19T17:29:28;3.67;;;1.92;;
45762;SDS011;37512;52.408;13.356;2022-09-19T17:33:29;2.42;;;1.40;;
45762;SDS011;37512;52.408;13.356;2022-09-19T17:37:31;2.92;;;1.73;;
45762;SDS011;37512;52.408;13.356;2022-09-19T17:41:32;3.90;;;1.58;;
45762;SDS011;37512;52.408;13.356;2022-09-19T17:45:36;4.10;;;1.17;;
45762;SDS011;37512;52.408;13.356;2022-09-19T17:49:38;3.30;;;1.70;;
45762;SDS011;37512;52.408;13.356;2022-09-19T17:53:40;3.40;;;2.00;;
45762;SDS011;37512;52.408;13.356;2022-09-19T17:57:42;2.08;;;1.30;;
45762;SDS011;37512;52.408;13.356;2022-09-19T18:01:44;4.20;;;2.33;;
45762;SDS011;37512;52.408;13.356;2022-09-19T18:06:04;4.18;;;1.80;;
45762;SDS011;37512;52.408;13.356;2022-09-19T18:10:05;3.90;;;2.08;;
45762;SDS011;37512;52.408;13.356;2022-09-19T18:14:07;4.38;;;1.63;;
45762;SDS011;37512;52.408;13.356;2022-09-19T18:18:13;5.88;;;2.28;;
45762;SDS011;37512;52.408;13.356;2022-09-19T18:22:15;2.65;;;1.67;;
45762;SDS011;37512;52.408;13.356;2022-09-19T18:26:17;4.28;;;2.20;;
45762;SDS011;37512;52.408;13.356;2022-09-19T18:30:20;8.02;;;3.00;;
45762;SDS011;37512;52.408;13.356;2022-09-19T18:34:23;6.57;;;2.65;;
45762;SDS011;37512;52.408;13.356;2022-09-19T18:38:24;4.30;;;2.30;;
45762;SDS011;37512;52.408;13.356;2022-09-19T18:42:25;4.15;;;2.88;;
45762;SDS011;37512;52.408;13.356;2022-09-19T18:46:27;5.53;;;3.35;;
45762;SDS011;37512;52.408;13.356;2022-09-19T18:50:29;9.85;;;3.90;;
45762;SDS011;37512;52.408;13.356;2022-09-19T18:54:30;8.10;;;4.43;;
45762;SDS011;37512;52.408;13.356;2022-09-19T18:58:35;7.03;;;4.95;;
45762;SDS011;37512;52.408;13.356;2022-09-19T19:02:36;9.88;;;5.93;;
45762;SDS011;37512;52.408;13.356;2022-09-19T19:06:38;29.45;;;16.80;;
45762;SDS011;37512;52.408;13.356;2022-09-19T19:10:40;11.18;;;6.60;;
45762;SDS011;37512;52.408;13.356;2022-09-19T19:14:41;14.27;;;7.85;;
45762;SDS011;37512;52.408;13.356;2022-09-19T19:18:43;6.55;;;3.63;;
45762;SDS011;37512;52.408;13.356;2022-09-19T19:22:51;6.25;;;3.90;;
45762;SDS011;37512;52.408;13.356;2022-09-19T19:26:53;3.40;;;2.20;;
45762;SDS011;37512;52.408;13.356;2022-09-19T19:30:56;3.55;;;1.88;;
45762;SDS011;37512;52.408;13.356;2022-09-19T19:34:59;3.53;;;1.85;;
45762;SDS011;37512;52.408;13.356;2022-09-19T19:39:01;4.85;;;2.08;;
45762;SDS011;37512;52.408;13.356;2022-09-19T19:43:02;7.05;;;2.70;;
45762;SDS011;37512;52.408;13.356;2022-09-19T19:47:04;4.90;;;2.20;;
45762;SDS011;37512;52.408;13.356;2022-09-19T19:51:06;6.85;;;2.75;;
45762;SDS011;37512;52.408;13.356;2022-09-19T19:55:11;2.80;;;2.20;;
45762;SDS011;37512;52.408;13.356;2022-09-19T19:59:12;2.58;;;1.50;;
45762;SDS011;37512;52.408;13.356;2022-09-19T20:03:15;4.75;;;1.90;;
45762;SDS011;37512;52.408;13.356;2022-09-19T20:07:16;2.72;;;1.50;;
45762;SDS011;37512;52.408;13.356;2022-09-19T20:11:18;3.20;;;2.17;;
45762;SDS011;37512;52.408;13.356;2022-09-19T20:15:20;1.95;;;1.38;;
45762;SDS011;37512;52.408;13.356;2022-09-19T20:19:21;4.22;;;1.95;;
45762;SDS011;37512;52.408;13.356;2022-09-19T20:23:23;3.13;;;1.52;;
45762;SDS011;37512;52.408;13.356;2022-09-19T20:27:24;3.22;;;1.40;;
45762;SDS011;37512;52.408;13.356;2022-09-19T20:31:27;5.25;;;2.20;;
45762;SDS011;37512;52.408;13.356;2022-09-19T20:35:30;5.63;;;2.20;;
45762;SDS011;37512;52.408;13.356;2022-09-19T20:39:32;4.88;;;2.60;;
45762;SDS011;37512;52.408;13.356;2022-09-19T20:43:33;4.43;;;1.75;;
45762;SDS011;37512;52.408;13.356;2022-09-19T20:47:35;3.50;;;1.80;;
45762;SDS011;37512;52.408;13.356;2022-09-19T20:51:37;2.38;;;1.50;;
45762;SDS011;37512;52.408;13.356;2022-09-19T20:55:40;5.95;;;1.80;;
45762;SDS011;37512;52.408;13.356;2022-09-19T20:59:42;3.05;;;1.60;;
45762;SDS011;37512;52.408;13.356;2022-09-19T21:03:44;8.15;;;2.58;;
45762;SDS011;37512;52.408;13.356;2022-09-19T21:07:45;6.28;;;1.85;;
45762;SDS011;37512;52.408;13.356;2022-09-19T21:11:47;3.20;;;1.75;;
45762;SDS011;37512;52.408;13.356;2022-09-19T21:15:48;3.25;;;1.90;;
45762;SDS011;37512;52.408;13.356;2022-09-19T21:19:50;5.70;;;2.30;;
45762;SDS011;37512;52.408;13.356;2022-09-19T21:23:52;5.25;;;1.67;;
45762;SDS011;37512;52.408;13.356;2022-09-19T21:27:53;6.97;;;1.80;;
45762;SDS011;37512;52.408;13.356;2022-09-19T21:31:55;3.80;;;2.30;;
45762;SDS011;37512;52.408;13.356;2022-09-19T21:35:57;2.08;;;1.60;;
45762;SDS011;37512;52.408;13.356;2022-09-19T21:39:59;2.03;;;1.58;;
45762;SDS011;37512;52.408;13.356;2022-09-19T21:44:02;2.03;;;1.35;;
45762;SDS011;37512;52.408;13.356;2022-09-19T21:48:05;4.45;;;1.50;;
45762;SDS011;37512;52.408;13.356;2022-09-19T21:52:06;2.63;;;1.48;;
45762;SDS011;37512;52.408;13.356;2022-09-19T21:56:08;2.70;;;1.38;;
45762;SDS011;37512;52.408;13.356;2022-09-19T22:00:11;3.58;;;1.58;;
45762;SDS011;37512;52.408;13.356;2022-09-19T22:04:13;3.65;;;1.30;;
45762;SDS011;37512;52.408;13.356;2022-09-19T22:08:14;2.85;;;1.83;;
45762;SDS011;37512;52.408;13.356;2022-09-19T22:12:16;2.95;;;1.45;;
45762;SDS011;37512;52.408;13.356;2022-09-19T22:16:17;2.58;;;1.23;;
45762;SDS011;37512;52.408;13.356;2022-09-19T22:20:20;1.90;;;1.15;;
45762;SDS011;37512;52.408;13.356;2022-09-19T22:24:21;1.70;;;1.38;;
45762;SDS011;37512;52.408;13.356;2022-09-19T22:28:23;2.50;;;1.42;;
45762;SDS011;37512;52.408;13.356;2022-09-19T22:32:24;4.32;;;1.55;;
45762;SDS011;37512;52.408;13.356;2022-09-19T22:36:27;2.97;;;1.52;;
45762;SDS011;37512;52.408;13.356;2022-09-19T22:40:31;6.13;;;1.42;;
45762;SDS011;37512;52.408;13.356;2022-09-19T22:44:33;1.80;;;1.30;;
45762;SDS011;37512;52.408;13.356;2022-09-19T22:48:35;7.22;;;1.38;;
45762;SDS011;37512;52.408;13.356;2022-09-19T22:52:37;3.80;;;1.40;;
45762;SDS011;37512;52.408;13.356;2022-09-19T22:56:39;3.80;;;1.45;;
45762;SDS011;37512;52.408;13.356;2022-09-19T23:00:40;3.47;;;1.23;;
45762;SDS011;37512;52.408;13.356;2022-09-19T23:04:42;3.92;;;1.40;;
45762;SDS011;37512;52.408;13.356;2022-09-19T23:08:47;2.88;;;1.33;;
45762;SDS011;37512;52.408;13.356;2022-09-19T23:12:49;2.42;;;1.25;;
45762;SDS011;37512;52.408;13.356;2022-09-19T23:17:11;2.25;;;1.20;;
45762;SDS011;37512;52.408;13.356;2022-09-19T23:21:12;6.10;;;1.55;;
45762;SDS011;37512;52.408;13.356;2022-09-19T23:25:14;2.50;;;1.30;;
45762;SDS011;37512;52.408;13.356;2022-09-19T23:29:15;2.25;;;1.23;;
45762;SDS011;37512;52.408;13.356;2022-09-19T23:33:18;1.17;;;1.02;;
45762;SDS011;37512;52.408;13.356;2022-09-19T23:37:19;2.63;;;1.15;;
45762;SDS011;37512;52.408;13.356;2022-09-19T23:41:21;5.00;;;1.20;;
45762;SDS011;37512;52.408;13.356;2022-09-19T23:45:24;2.35;;;1.27;;
45762;SDS011;37512;52.408;13.356;2022-09-19T23:49:25;2.75;;;1.10;;
45762;SDS011;37512;52.408;13.356;2022-09-19T23:53:27;2.63;;;1.27;;
45762;SDS011;37512;52.408;13.356;2022-09-19T23:57:32;2.42;;;1.30;;
